sensor_id;sensor_type;location;lat;lon;timestamp;temperature;humidity
67502;SHT30;54349;52.528;19.760;2022-11-20T00:01:32;23.51;41.86
67502;SHT30;54349;52.528;19.760;2022-11-20T00:04:01;23.56;41.86
67502;SHT30;54349;52.528;19.760;2022-11-20T00:06:30;23.59;41.89
67502;SHT30;54349;52.528;19.760;2022-11-20T00:08:59;23.63;41.91
67502;SHT30;54349;52.528;19.760;2022-11-20T00:11:29;23.66;41.88
67502;SHT30;54349;52.528;19.760;2022-11-20T00:14:00;23.69;41.86
67502;SHT30;54349;52.528;19.760;2022-11-20T00:16:31;23.73;41.86
67502;SHT30;54349;52.528;19.760;2022-11-20T00:19:01;23.76;41.78
67502;SHT30;54349;52.528;19.760;2022-11-20T00:21:30;23.78;41.70
67502;SHT30;54349;52.528;19.760;2022-11-20T00:23:59;23.78;41.60
67502;SHT30;54349;52.528;19.760;2022-11-20T00:26:27;23.78;41.59
67502;SHT30;54349;52.528;19.760;2022-11-20T00:29:00;23.78;41.50
67502;SHT30;54349;52.528;19.760;2022-11-20T00:31:29;23.77;41.46
67502;SHT30;54349;52.528;19.760;2022-11-20T00:33:58;23.78;41.49
67502;SHT30;54349;52.528;19.760;2022-11-20T00:36:27;23.77;41.48
67502;SHT30;54349;52.528;19.760;2022-11-20T00:38:59;23.76;41.46
67502;SHT30;54349;52.528;19.760;2022-11-20T00:41:28;23.76;41.42
67502;SHT30;54349;52.528;19.760;2022-11-20T00:43:57;23.76;41.39
67502;SHT30;54349;52.528;19.760;2022-11-20T00:46:26;23.74;41.41
67502;SHT30;54349;52.528;19.760;2022-11-20T00:48:56;23.74;41.36
67502;SHT30;54349;52.528;19.760;2022-11-20T00:51:25;23.73;41.28
67502;SHT30;54349;52.528;19.760;2022-11-20T00:53:55;23.72;41.27
67502;SHT30;54349;52.528;19.760;2022-11-20T00:56:27;23.72;41.19
67502;SHT30;54349;52.528;19.760;2022-11-20T00:58:58;23.71;41.14
67502;SHT30;54349;52.528;19.760;2022-11-20T01:01:31;23.69;41.11
67502;SHT30;54349;52.528;19.760;2022-11-20T01:03:59;23.66;40.96
67502;SHT30;54349;52.528;19.760;2022-11-20T01:06:32;23.62;40.84
67502;SHT30;54349;52.528;19.760;2022-11-20T01:09:05;23.58;40.77
67502;SHT30;54349;52.528;19.760;2022-11-20T01:11:41;23.54;40.71
67502;SHT30;54349;52.528;19.760;2022-11-20T01:14:13;23.50;40.67
67502;SHT30;54349;52.528;19.760;2022-11-20T01:16:44;23.46;40.60
67502;SHT30;54349;52.528;19.760;2022-11-20T01:19:19;23.43;40.57
67502;SHT30;54349;52.528;19.760;2022-11-20T01:21:51;23.38;40.50
67502;SHT30;54349;52.528;19.760;2022-11-20T01:24:22;23.35;40.46
67502;SHT30;54349;52.528;19.760;2022-11-20T01:26:50;23.31;40.40
67502;SHT30;54349;52.528;19.760;2022-11-20T01:29:23;23.27;40.32
67502;SHT30;54349;52.528;19.760;2022-11-20T01:31:52;23.23;40.30
67502;SHT30;54349;52.528;19.760;2022-11-20T01:34:21;23.20;40.24
67502;SHT30;54349;52.528;19.760;2022-11-20T01:36:51;23.15;40.21
67502;SHT30;54349;52.528;19.760;2022-11-20T01:39:24;23.12;40.18
67502;SHT30;54349;52.528;19.760;2022-11-20T01:41:54;23.08;40.14
67502;SHT30;54349;52.528;19.760;2022-11-20T01:47:37;23.00;40.06
67502;SHT30;54349;52.528;19.760;2022-11-20T01:50:21;22.97;40.03
67502;SHT30;54349;52.528;19.760;2022-11-20T01:53:02;22.94;40.01
67502;SHT30;54349;52.528;19.760;2022-11-20T01:55:39;22.91;39.99
67502;SHT30;54349;52.528;19.760;2022-11-20T01:58:18;22.87;39.94
67502;SHT30;54349;52.528;19.760;2022-11-20T02:00:52;22.84;39.91
67502;SHT30;54349;52.528;19.760;2022-11-20T02:03:21;22.80;39.88
67502;SHT30;54349;52.528;19.760;2022-11-20T02:05:55;22.77;39.89
67502;SHT30;54349;52.528;19.760;2022-11-20T02:08:32;22.74;39.85
67502;SHT30;54349;52.528;19.760;2022-11-20T02:11:01;22.72;39.81
67502;SHT30;54349;52.528;19.760;2022-11-20T02:13:29;22.69;39.79
67502;SHT30;54349;52.528;19.760;2022-11-20T02:16:26;22.65;39.78
67502;SHT30;54349;52.528;19.760;2022-11-20T02:19:01;22.63;39.72
67502;SHT30;54349;52.528;19.760;2022-11-20T02:21:37;22.59;39.71
67502;SHT30;54349;52.528;19.760;2022-11-20T02:24:16;22.56;39.69
67502;SHT30;54349;52.528;19.760;2022-11-20T02:26:54;22.54;39.70
67502;SHT30;54349;52.528;19.760;2022-11-20T02:32:25;22.46;39.63
67502;SHT30;54349;52.528;19.760;2022-11-20T02:34:58;22.44;39.65
67502;SHT30;54349;52.528;19.760;2022-11-20T02:37:35;22.42;39.62
67502;SHT30;54349;52.528;19.760;2022-11-20T02:40:08;22.39;39.61
67502;SHT30;54349;52.528;19.760;2022-11-20T02:42:37;22.36;39.60
67502;SHT30;54349;52.528;19.760;2022-11-20T02:45:05;22.33;39.59
67502;SHT30;54349;52.528;19.760;2022-11-20T02:47:35;22.32;39.60
67502;SHT30;54349;52.528;19.760;2022-11-20T02:50:06;22.30;39.54
67502;SHT30;54349;52.528;19.760;2022-11-20T02:52:34;22.25;39.55
67502;SHT30;54349;52.528;19.760;2022-11-20T02:55:02;22.23;39.52
67502;SHT30;54349;52.528;19.760;2022-11-20T02:57:32;22.21;39.54
67502;SHT30;54349;52.528;19.760;2022-11-20T03:00:00;22.18;39.55
67502;SHT30;54349;52.528;19.760;2022-11-20T03:02:31;22.16;39.50
67502;SHT30;54349;52.528;19.760;2022-11-20T03:05:00;22.14;39.50
67502;SHT30;54349;52.528;19.760;2022-11-20T03:07:29;22.11;39.50
67502;SHT30;54349;52.528;19.760;2022-11-20T03:09:57;22.09;39.50
67502;SHT30;54349;52.528;19.760;2022-11-20T03:12:25;22.07;39.50
67502;SHT30;54349;52.528;19.760;2022-11-20T03:14:53;22.05;39.50
67502;SHT30;54349;52.528;19.760;2022-11-20T03:17:21;22.02;39.50
67502;SHT30;54349;52.528;19.760;2022-11-20T03:19:49;22.01;39.47
67502;SHT30;54349;52.528;19.760;2022-11-20T03:22:17;21.98;39.47
67502;SHT30;54349;52.528;19.760;2022-11-20T03:24:45;21.96;39.49
67502;SHT30;54349;52.528;19.760;2022-11-20T03:27:14;21.94;39.50
67502;SHT30;54349;52.528;19.760;2022-11-20T03:29:42;21.91;39.45
67502;SHT30;54349;52.528;19.760;2022-11-20T03:32:10;21.88;39.47
67502;SHT30;54349;52.528;19.760;2022-11-20T03:34:38;21.86;39.48
67502;SHT30;54349;52.528;19.760;2022-11-20T03:37:06;21.84;39.47
67502;SHT30;54349;52.528;19.760;2022-11-20T03:39:34;21.83;39.49
67502;SHT30;54349;52.528;19.760;2022-11-20T03:42:02;21.82;39.50
67502;SHT30;54349;52.528;19.760;2022-11-20T03:44:50;21.80;39.44
67502;SHT30;54349;52.528;19.760;2022-11-20T03:47:18;21.78;39.45
67502;SHT30;54349;52.528;19.760;2022-11-20T03:49:46;21.76;39.42
67502;SHT30;54349;52.528;19.760;2022-11-20T03:52:14;21.74;39.44
67502;SHT30;54349;52.528;19.760;2022-11-20T03:54:42;21.72;39.41
67502;SHT30;54349;52.528;19.760;2022-11-20T03:57:09;21.70;39.42
67502;SHT30;54349;52.528;19.760;2022-11-20T03:59:37;21.68;39.40
67502;SHT30;54349;52.528;19.760;2022-11-20T04:02:06;21.67;39.31
67502;SHT30;54349;52.528;19.760;2022-11-20T04:04:34;21.65;39.17
67502;SHT30;54349;52.528;19.760;2022-11-20T04:07:02;21.62;39.12
67502;SHT30;54349;52.528;19.760;2022-11-20T04:09:31;21.60;39.09
67502;SHT30;54349;52.528;19.760;2022-11-20T04:11:59;21.56;39.03
67502;SHT30;54349;52.528;19.760;2022-11-20T04:14:27;21.54;38.92
67502;SHT30;54349;52.528;19.760;2022-11-20T04:16:55;21.51;38.89
67502;SHT30;54349;52.528;19.760;2022-11-20T04:19:23;21.49;38.82
67502;SHT30;54349;52.528;19.760;2022-11-20T04:21:51;21.45;38.82
67502;SHT30;54349;52.528;19.760;2022-11-20T04:24:19;21.43;38.84
67502;SHT30;54349;52.528;19.760;2022-11-20T04:26:47;21.41;38.79
67502;SHT30;54349;52.528;19.760;2022-11-20T04:29:15;21.38;38.73
67502;SHT30;54349;52.528;19.760;2022-11-20T04:31:43;21.36;38.69
67502;SHT30;54349;52.528;19.760;2022-11-20T04:34:11;21.34;38.67
67502;SHT30;54349;52.528;19.760;2022-11-20T04:36:40;21.32;38.63
67502;SHT30;54349;52.528;19.760;2022-11-20T04:39:11;21.30;38.77
67502;SHT30;54349;52.528;19.760;2022-11-20T04:41:41;21.29;38.74
67502;SHT30;54349;52.528;19.760;2022-11-20T04:44:10;21.28;38.70
67502;SHT30;54349;52.528;19.760;2022-11-20T04:46:40;21.26;38.79
67502;SHT30;54349;52.528;19.760;2022-11-20T04:49:10;21.25;38.77
67502;SHT30;54349;52.528;19.760;2022-11-20T04:51:39;21.23;38.71
67502;SHT30;54349;52.528;19.760;2022-11-20T04:54:08;21.24;38.64
67502;SHT30;54349;52.528;19.760;2022-11-20T04:56:37;21.24;38.49
67502;SHT30;54349;52.528;19.760;2022-11-20T04:59:06;21.29;38.22
67502;SHT30;54349;52.528;19.760;2022-11-20T05:01:34;21.35;38.05
67502;SHT30;54349;52.528;19.760;2022-11-20T05:04:02;21.40;37.90
67502;SHT30;54349;52.528;19.760;2022-11-20T05:06:30;21.50;37.75
67502;SHT30;54349;52.528;19.760;2022-11-20T05:08:59;21.60;37.52
67502;SHT30;54349;52.528;19.760;2022-11-20T05:11:28;21.73;37.33
67502;SHT30;54349;52.528;19.760;2022-11-20T05:13:57;21.85;37.15
67502;SHT30;54349;52.528;19.760;2022-11-20T05:16:26;21.95;36.99
67502;SHT30;54349;52.528;19.760;2022-11-20T05:18:54;22.08;36.84
67502;SHT30;54349;52.528;19.760;2022-11-20T05:21:23;22.17;36.67
67502;SHT30;54349;52.528;19.760;2022-11-20T05:23:51;22.25;36.53
67502;SHT30;54349;52.528;19.760;2022-11-20T05:26:20;22.33;36.38
67502;SHT30;54349;52.528;19.760;2022-11-20T05:28:50;22.41;36.30
67502;SHT30;54349;52.528;19.760;2022-11-20T05:31:20;22.48;36.11
67502;SHT30;54349;52.528;19.760;2022-11-20T05:33:55;22.55;35.97
67502;SHT30;54349;52.528;19.760;2022-11-20T05:36:25;22.62;35.92
67502;SHT30;54349;52.528;19.760;2022-11-20T05:38:53;22.67;35.78
67502;SHT30;54349;52.528;19.760;2022-11-20T05:41:28;22.72;35.75
67502;SHT30;54349;52.528;19.760;2022-11-20T05:43:57;22.79;35.65
67502;SHT30;54349;52.528;19.760;2022-11-20T05:46:26;22.84;35.57
67502;SHT30;54349;52.528;19.760;2022-11-20T05:48:56;22.89;35.49
67502;SHT30;54349;52.528;19.760;2022-11-20T05:51:25;22.93;35.49
67502;SHT30;54349;52.528;19.760;2022-11-20T05:53:57;22.98;35.38
67502;SHT30;54349;52.528;19.760;2022-11-20T05:56:26;23.01;35.30
67502;SHT30;54349;52.528;19.760;2022-11-20T05:58:55;23.06;35.23
67502;SHT30;54349;52.528;19.760;2022-11-20T06:01:25;23.10;35.20
67502;SHT30;54349;52.528;19.760;2022-11-20T06:03:53;23.13;35.10
67502;SHT30;54349;52.528;19.760;2022-11-20T06:06:22;23.17;35.09
67502;SHT30;54349;52.528;19.760;2022-11-20T06:08:51;23.22;35.04
67502;SHT30;54349;52.528;19.760;2022-11-20T06:11:20;23.26;34.98
67502;SHT30;54349;52.528;19.760;2022-11-20T06:13:48;23.29;34.92
67502;SHT30;54349;52.528;19.760;2022-11-20T06:16:17;23.32;34.90
67502;SHT30;54349;52.528;19.760;2022-11-20T06:18:47;23.36;34.87
67502;SHT30;54349;52.528;19.760;2022-11-20T06:21:20;23.39;34.82
67502;SHT30;54349;52.528;19.760;2022-11-20T06:23:50;23.40;34.73
67502;SHT30;54349;52.528;19.760;2022-11-20T06:26:22;23.43;34.72
67502;SHT30;54349;52.528;19.760;2022-11-20T06:28:54;23.46;34.70
67502;SHT30;54349;52.528;19.760;2022-11-20T06:31:24;23.50;34.66
67502;SHT30;54349;52.528;19.760;2022-11-20T06:33:54;23.50;34.59
67502;SHT30;54349;52.528;19.760;2022-11-20T06:36:23;23.52;34.58
67502;SHT30;54349;52.528;19.760;2022-11-20T06:38:51;23.55;34.59
67502;SHT30;54349;52.528;19.760;2022-11-20T06:41:20;23.57;34.54
67502;SHT30;54349;52.528;19.760;2022-11-20T06:43:50;23.58;34.51
67502;SHT30;54349;52.528;19.760;2022-11-20T06:46:19;23.59;34.51
67502;SHT30;54349;52.528;19.760;2022-11-20T06:48:48;23.61;34.51
67502;SHT30;54349;52.528;19.760;2022-11-20T06:51:18;23.61;34.49
67502;SHT30;54349;52.528;19.760;2022-11-20T06:53:46;23.62;34.46
67502;SHT30;54349;52.528;19.760;2022-11-20T06:56:14;23.63;34.47
67502;SHT30;54349;52.528;19.760;2022-11-20T06:58:42;23.64;34.47
67502;SHT30;54349;52.528;19.760;2022-11-20T07:01:11;23.63;34.41
67502;SHT30;54349;52.528;19.760;2022-11-20T07:03:42;23.64;34.42
67502;SHT30;54349;52.528;19.760;2022-11-20T07:06:10;23.64;34.43
67502;SHT30;54349;52.528;19.760;2022-11-20T07:08:38;23.65;34.40
67502;SHT30;54349;52.528;19.760;2022-11-20T07:11:07;23.63;34.42
67502;SHT30;54349;52.528;19.760;2022-11-20T07:13:36;23.62;34.41
67502;SHT30;54349;52.528;19.760;2022-11-20T07:16:05;23.61;34.44
67502;SHT30;54349;52.528;19.760;2022-11-20T07:18:36;23.60;34.65
67502;SHT30;54349;52.528;19.760;2022-11-20T07:21:06;23.59;34.79
67502;SHT30;54349;52.528;19.760;2022-11-20T07:23:37;23.57;34.80
67502;SHT30;54349;52.528;19.760;2022-11-20T07:26:07;23.56;34.70
67502;SHT30;54349;52.528;19.760;2022-11-20T07:28:37;23.54;34.65
67502;SHT30;54349;52.528;19.760;2022-11-20T07:31:06;23.54;34.67
67502;SHT30;54349;52.528;19.760;2022-11-20T07:33:35;23.53;34.61
67502;SHT30;54349;52.528;19.760;2022-11-20T07:36:04;23.52;34.61
67502;SHT30;54349;52.528;19.760;2022-11-20T07:38:32;23.51;34.67
67502;SHT30;54349;52.528;19.760;2022-11-20T07:41:00;23.51;34.67
67502;SHT30;54349;52.528;19.760;2022-11-20T07:43:29;23.50;34.61
67502;SHT30;54349;52.528;19.760;2022-11-20T07:45:59;23.51;34.61
67502;SHT30;54349;52.528;19.760;2022-11-20T07:48:27;23.52;34.61
67502;SHT30;54349;52.528;19.760;2022-11-20T07:50:56;23.51;34.53
67502;SHT30;54349;52.528;19.760;2022-11-20T07:53:24;23.51;34.51
67502;SHT30;54349;52.528;19.760;2022-11-20T07:55:52;23.51;34.53
67502;SHT30;54349;52.528;19.760;2022-11-20T07:58:21;23.50;34.54
67502;SHT30;54349;52.528;19.760;2022-11-20T08:00:49;23.51;34.49
67502;SHT30;54349;52.528;19.760;2022-11-20T08:03:18;23.52;34.48
67502;SHT30;54349;52.528;19.760;2022-11-20T08:05:52;23.52;34.51
67502;SHT30;54349;52.528;19.760;2022-11-20T08:08:20;23.53;34.49
67502;SHT30;54349;52.528;19.760;2022-11-20T08:10:49;23.54;34.41
67502;SHT30;54349;52.528;19.760;2022-11-20T08:13:18;23.56;34.46
67502;SHT30;54349;52.528;19.760;2022-11-20T08:16:05;23.57;34.42
67502;SHT30;54349;52.528;19.760;2022-11-20T08:18:33;23.58;34.41
67502;SHT30;54349;52.528;19.760;2022-11-20T08:21:02;23.57;34.43
67502;SHT30;54349;52.528;19.760;2022-11-20T08:23:32;23.58;34.43
67502;SHT30;54349;52.528;19.760;2022-11-20T08:26:01;23.59;34.42
67502;SHT30;54349;52.528;19.760;2022-11-20T08:28:29;23.59;34.44
67502;SHT30;54349;52.528;19.760;2022-11-20T08:30:58;23.59;34.44
67502;SHT30;54349;52.528;19.760;2022-11-20T08:33:28;23.60;34.41
67502;SHT30;54349;52.528;19.760;2022-11-20T08:35:58;23.62;34.39
67502;SHT30;54349;52.528;19.760;2022-11-20T08:38:30;23.63;34.33
67502;SHT30;54349;52.528;19.760;2022-11-20T08:40:59;23.64;34.36
67502;SHT30;54349;52.528;19.760;2022-11-20T08:43:49;23.65;34.35
67502;SHT30;54349;52.528;19.760;2022-11-20T08:46:18;23.66;34.31
67502;SHT30;54349;52.528;19.760;2022-11-20T08:48:47;23.66;34.30
67502;SHT30;54349;52.528;19.760;2022-11-20T08:51:15;23.67;34.29
67502;SHT30;54349;52.528;19.760;2022-11-20T08:53:45;23.69;34.29
67502;SHT30;54349;52.528;19.760;2022-11-20T08:56:16;23.69;34.28
67502;SHT30;54349;52.528;19.760;2022-11-20T08:58:45;23.69;34.30
67502;SHT30;54349;52.528;19.760;2022-11-20T09:01:34;23.70;34.35
67502;SHT30;54349;52.528;19.760;2022-11-20T09:04:03;23.71;34.37
67502;SHT30;54349;52.528;19.760;2022-11-20T09:06:32;23.72;34.31
67502;SHT30;54349;52.528;19.760;2022-11-20T09:09:01;23.71;34.33
67502;SHT30;54349;52.528;19.760;2022-11-20T09:11:34;23.72;34.40
67502;SHT30;54349;52.528;19.760;2022-11-20T09:14:04;23.72;34.34
67502;SHT30;54349;52.528;19.760;2022-11-20T09:16:32;23.71;34.32
67502;SHT30;54349;52.528;19.760;2022-11-20T09:19:01;23.72;34.33
67502;SHT30;54349;52.528;19.760;2022-11-20T09:21:49;23.72;34.34
67502;SHT30;54349;52.528;19.760;2022-11-20T09:24:22;23.73;34.30
67502;SHT30;54349;52.528;19.760;2022-11-20T09:26:50;23.73;34.28
67502;SHT30;54349;52.528;19.760;2022-11-20T09:29:18;23.73;34.17
67502;SHT30;54349;52.528;19.760;2022-11-20T09:31:47;23.73;34.13
67502;SHT30;54349;52.528;19.760;2022-11-20T09:34:15;23.72;34.01
67502;SHT30;54349;52.528;19.760;2022-11-20T09:36:44;23.72;33.91
67502;SHT30;54349;52.528;19.760;2022-11-20T09:39:13;23.71;33.90
67502;SHT30;54349;52.528;19.760;2022-11-20T09:41:45;23.72;33.83
67502;SHT30;54349;52.528;19.760;2022-11-20T09:54:31;23.70;33.64
67502;SHT30;54349;52.528;19.760;2022-11-20T09:57:13;23.69;33.58
67502;SHT30;54349;52.528;19.760;2022-11-20T09:59:59;23.69;33.53
67502;SHT30;54349;52.528;19.760;2022-11-20T10:05:34;23.71;33.61
67502;SHT30;54349;52.528;19.760;2022-11-20T10:25:15;23.66;33.84
67502;SHT30;54349;52.528;19.760;2022-11-20T10:31:04;23.62;35.35
67502;SHT30;54349;52.528;19.760;2022-11-20T10:34:30;23.62;36.63
67502;SHT30;54349;52.528;19.760;2022-11-20T10:37:11;23.61;37.23
67502;SHT30;54349;52.528;19.760;2022-11-20T10:43:10;23.61;37.71
67502;SHT30;54349;52.528;19.760;2022-11-20T10:45:55;23.61;37.81
67502;SHT30;54349;52.528;19.760;2022-11-20T10:48:30;23.62;38.09
67502;SHT30;54349;52.528;19.760;2022-11-20T10:51:35;23.64;38.28
67502;SHT30;54349;52.528;19.760;2022-11-20T10:56:48;23.62;38.54
67502;SHT30;54349;52.528;19.760;2022-11-20T11:01:58;23.69;38.79
67502;SHT30;54349;52.528;19.760;2022-11-20T11:07:19;23.70;38.99
67502;SHT30;54349;52.528;19.760;2022-11-20T11:09:50;23.75;38.93
67502;SHT30;54349;52.528;19.760;2022-11-20T11:12:22;23.76;38.94
67502;SHT30;54349;52.528;19.760;2022-11-20T11:14:54;23.77;39.02
67502;SHT30;54349;52.528;19.760;2022-11-20T11:17:29;23.79;39.12
67502;SHT30;54349;52.528;19.760;2022-11-20T11:22:49;23.84;39.09
67502;SHT30;54349;52.528;19.760;2022-11-20T11:25:24;23.86;39.14
67502;SHT30;54349;52.528;19.760;2022-11-20T11:28:04;23.87;39.17
67502;SHT30;54349;52.528;19.760;2022-11-20T11:30:49;23.90;39.09
67502;SHT30;54349;52.528;19.760;2022-11-20T11:33:18;23.92;39.04
67502;SHT30;54349;52.528;19.760;2022-11-20T11:35:52;23.92;39.01
67502;SHT30;54349;52.528;19.760;2022-11-20T11:41:04;23.93;39.01
67502;SHT30;54349;52.528;19.760;2022-11-20T11:43:36;23.94;38.92
67502;SHT30;54349;52.528;19.760;2022-11-20T11:46:31;23.94;38.91
67502;SHT30;54349;52.528;19.760;2022-11-20T11:54:30;23.96;38.96
67502;SHT30;54349;52.528;19.760;2022-11-20T12:00:21;23.98;38.96
67502;SHT30;54349;52.528;19.760;2022-11-20T12:02:57;23.98;38.97
67502;SHT30;54349;52.528;19.760;2022-11-20T12:05:44;23.98;38.94
67502;SHT30;54349;52.528;19.760;2022-11-20T12:14:37;24.01;38.72
67502;SHT30;54349;52.528;19.760;2022-11-20T12:17:12;24.01;38.75
67502;SHT30;54349;52.528;19.760;2022-11-20T12:19:42;24.02;38.64
67502;SHT30;54349;52.528;19.760;2022-11-20T12:25:27;23.98;38.88
67502;SHT30;54349;52.528;19.760;2022-11-20T12:37:00;23.89;38.46
67502;SHT30;54349;52.528;19.760;2022-11-20T12:39:49;23.87;38.08
67502;SHT30;54349;52.528;19.760;2022-11-20T12:45:54;23.85;37.86
67502;SHT30;54349;52.528;19.760;2022-11-20T12:51:51;23.79;37.65
67502;SHT30;54349;52.528;19.760;2022-11-20T13:00:12;23.74;37.26
67502;SHT30;54349;52.528;19.760;2022-11-20T13:08:36;23.67;37.13
67502;SHT30;54349;52.528;19.760;2022-11-20T13:14:20;23.63;36.90
67502;SHT30;54349;52.528;19.760;2022-11-20T13:17:04;23.58;36.89
67502;SHT30;54349;52.528;19.760;2022-11-20T13:19:48;23.55;36.96
67502;SHT30;54349;52.528;19.760;2022-11-20T13:25:29;23.50;36.79
67502;SHT30;54349;52.528;19.760;2022-11-20T13:30:47;23.45;36.63
67502;SHT30;54349;52.528;19.760;2022-11-20T13:33:31;23.41;36.42
67502;SHT30;54349;52.528;19.760;2022-11-20T13:36:19;23.38;36.43
67502;SHT30;54349;52.528;19.760;2022-11-20T13:38:55;23.35;36.36
67502;SHT30;54349;52.528;19.760;2022-11-20T13:41:28;23.33;36.29
67502;SHT30;54349;52.528;19.760;2022-11-20T13:46:43;23.30;36.19
67502;SHT30;54349;52.528;19.760;2022-11-20T13:49:16;23.29;36.04
67502;SHT30;54349;52.528;19.760;2022-11-20T13:51:51;23.26;35.94
67502;SHT30;54349;52.528;19.760;2022-11-20T13:58:44;23.26;35.86
67502;SHT30;54349;52.528;19.760;2022-11-20T14:01:09;23.27;35.81
67502;SHT30;54349;52.528;19.760;2022-11-20T14:03:41;23.27;35.73
67502;SHT30;54349;52.528;19.760;2022-11-20T14:06:32;23.27;35.63
67502;SHT30;54349;52.528;19.760;2022-11-20T14:09:25;23.29;35.63
67502;SHT30;54349;52.528;19.760;2022-11-20T14:12:12;23.30;35.47
67502;SHT30;54349;52.528;19.760;2022-11-20T14:14:52;23.30;35.43
67502;SHT30;54349;52.528;19.760;2022-11-20T14:17:32;23.30;35.46
67502;SHT30;54349;52.528;19.760;2022-11-20T14:20:05;23.30;35.31
67502;SHT30;54349;52.528;19.760;2022-11-20T14:22:49;23.31;35.28
67502;SHT30;54349;52.528;19.760;2022-11-20T14:25:20;23.30;35.27
67502;SHT30;54349;52.528;19.760;2022-11-20T14:27:59;23.30;35.24
67502;SHT30;54349;52.528;19.760;2022-11-20T14:33:12;23.30;35.02
67502;SHT30;54349;52.528;19.760;2022-11-20T14:35:47;23.29;34.89
67502;SHT30;54349;52.528;19.760;2022-11-20T14:38:20;23.25;34.69
67502;SHT30;54349;52.528;19.760;2022-11-20T14:40:53;23.21;34.53
67502;SHT30;54349;52.528;19.760;2022-11-20T14:46:02;23.15;34.35
67502;SHT30;54349;52.528;19.760;2022-11-20T14:59:31;23.09;34.25
67502;SHT30;54349;52.528;19.760;2022-11-20T15:02:03;23.07;34.07
67502;SHT30;54349;52.528;19.760;2022-11-20T15:07:26;23.03;33.95
67502;SHT30;54349;52.528;19.760;2022-11-20T15:10:08;23.02;33.75
67502;SHT30;54349;52.528;19.760;2022-11-20T15:12:45;22.98;33.70
67502;SHT30;54349;52.528;19.760;2022-11-20T15:15:28;22.96;33.62
67502;SHT30;54349;52.528;19.760;2022-11-20T15:18:13;22.94;33.52
67502;SHT30;54349;52.528;19.760;2022-11-20T15:20:45;22.91;33.47
67502;SHT30;54349;52.528;19.760;2022-11-20T15:23:15;22.89;33.37
67502;SHT30;54349;52.528;19.760;2022-11-20T15:25:46;22.85;33.23
67502;SHT30;54349;52.528;19.760;2022-11-20T15:28:18;22.81;33.19
67502;SHT30;54349;52.528;19.760;2022-11-20T15:30:58;22.77;33.13
67502;SHT30;54349;52.528;19.760;2022-11-20T15:33:27;22.75;33.05
67502;SHT30;54349;52.528;19.760;2022-11-20T15:35:55;22.72;33.03
67502;SHT30;54349;52.528;19.760;2022-11-20T15:38:24;22.69;33.05
67502;SHT30;54349;52.528;19.760;2022-11-20T15:40:52;22.67;32.95
67502;SHT30;54349;52.528;19.760;2022-11-20T15:43:21;22.63;33.01
67502;SHT30;54349;52.528;19.760;2022-11-20T15:45:54;22.63;33.14
67502;SHT30;54349;52.528;19.760;2022-11-20T15:48:29;22.66;33.25
67502;SHT30;54349;52.528;19.760;2022-11-20T15:53:39;22.74;33.38
67502;SHT30;54349;52.528;19.760;2022-11-20T15:56:12;22.79;33.35
67502;SHT30;54349;52.528;19.760;2022-11-20T15:58:42;22.84;33.43
67502;SHT30;54349;52.528;19.760;2022-11-20T16:01:11;22.88;33.52
67502;SHT30;54349;52.528;19.760;2022-11-20T16:03:43;22.92;33.68
67502;SHT30;54349;52.528;19.760;2022-11-20T16:06:12;22.95;33.81
67502;SHT30;54349;52.528;19.760;2022-11-20T16:08:40;23.01;34.10
67502;SHT30;54349;52.528;19.760;2022-11-20T16:11:10;23.09;34.12
67502;SHT30;54349;52.528;19.760;2022-11-20T16:13:42;23.15;34.10
67502;SHT30;54349;52.528;19.760;2022-11-20T16:16:32;23.23;34.09
67502;SHT30;54349;52.528;19.760;2022-11-20T16:19:04;23.29;34.02
67502;SHT30;54349;52.528;19.760;2022-11-20T16:21:33;23.34;33.96
67502;SHT30;54349;52.528;19.760;2022-11-20T16:24:05;23.39;33.97
67502;SHT30;54349;52.528;19.760;2022-11-20T16:26:36;23.43;33.92
67502;SHT30;54349;52.528;19.760;2022-11-20T16:29:05;23.45;33.72
67502;SHT30;54349;52.528;19.760;2022-11-20T16:31:35;23.44;33.78
67502;SHT30;54349;52.528;19.760;2022-11-20T16:34:05;23.42;33.89
67502;SHT30;54349;52.528;19.760;2022-11-20T16:36:40;23.41;33.97
67502;SHT30;54349;52.528;19.760;2022-11-20T16:39:10;23.40;33.83
67502;SHT30;54349;52.528;19.760;2022-11-20T16:41:39;23.39;33.89
67502;SHT30;54349;52.528;19.760;2022-11-20T16:44:08;23.38;33.96
67502;SHT30;54349;52.528;19.760;2022-11-20T16:46:38;23.37;34.04
67502;SHT30;54349;52.528;19.760;2022-11-20T16:49:11;23.36;33.94
67502;SHT30;54349;52.528;19.760;2022-11-20T16:51:41;23.34;34.05
67502;SHT30;54349;52.528;19.760;2022-11-20T16:54:09;23.33;34.21
67502;SHT30;54349;52.528;19.760;2022-11-20T16:56:46;23.32;34.29
67502;SHT30;54349;52.528;19.760;2022-11-20T16:59:14;23.31;34.34
67502;SHT30;54349;52.528;19.760;2022-11-20T17:01:43;23.30;34.35
67502;SHT30;54349;52.528;19.760;2022-11-20T17:04:11;23.28;34.41
67502;SHT30;54349;52.528;19.760;2022-11-20T17:06:41;23.26;34.47
67502;SHT30;54349;52.528;19.760;2022-11-20T17:09:11;23.25;34.44
67502;SHT30;54349;52.528;19.760;2022-11-20T17:11:40;23.23;34.29
67502;SHT30;54349;52.528;19.760;2022-11-20T17:14:12;23.21;34.29
67502;SHT30;54349;52.528;19.760;2022-11-20T17:16:40;23.20;34.28
67502;SHT30;54349;52.528;19.760;2022-11-20T17:19:08;23.17;34.27
67502;SHT30;54349;52.528;19.760;2022-11-20T17:21:37;23.17;34.25
67502;SHT30;54349;52.528;19.760;2022-11-20T17:24:07;23.16;34.20
67502;SHT30;54349;52.528;19.760;2022-11-20T17:26:39;23.14;34.29
67502;SHT30;54349;52.528;19.760;2022-11-20T17:29:10;23.13;34.37
67502;SHT30;54349;52.528;19.760;2022-11-20T17:31:41;23.12;34.41
67502;SHT30;54349;52.528;19.760;2022-11-20T17:34:12;23.11;34.27
67502;SHT30;54349;52.528;19.760;2022-11-20T17:36:42;23.10;34.29
67502;SHT30;54349;52.528;19.760;2022-11-20T17:39:13;23.10;34.35
67502;SHT30;54349;52.528;19.760;2022-11-20T17:41:43;23.10;34.24
67502;SHT30;54349;52.528;19.760;2022-11-20T17:44:12;23.10;34.18
67502;SHT30;54349;52.528;19.760;2022-11-20T17:46:42;23.11;34.21
67502;SHT30;54349;52.528;19.760;2022-11-20T17:49:10;23.10;34.26
67502;SHT30;54349;52.528;19.760;2022-11-20T17:51:38;23.11;34.20
67502;SHT30;54349;52.528;19.760;2022-11-20T17:54:07;23.11;34.13
67502;SHT30;54349;52.528;19.760;2022-11-20T17:56:37;23.10;34.09
67502;SHT30;54349;52.528;19.760;2022-11-20T17:59:24;23.11;34.11
67502;SHT30;54349;52.528;19.760;2022-11-20T18:01:52;23.11;34.06
67502;SHT30;54349;52.528;19.760;2022-11-20T18:04:25;23.10;34.00